sensor_id;sensor_type;location;lat;lon;timestamp;temperature;humidity
35445;DHT22;21562;49.476;6.086;2023-03-01T00:01:10;3.80;99.90
35445;DHT22;21562;49.476;6.086;2023-03-01T00:03:36;4.00;99.90
35445;DHT22;21562;49.476;6.086;2023-03-01T00:06:03;4.10;99.90
35445;DHT22;21562;49.476;6.086;2023-03-01T00:08:29;4.00;99.90
35445;DHT22;21562;49.476;6.086;2023-03-01T00:11:12;3.70;99.90
35445;DHT22;21562;49.476;6.086;2023-03-01T00:13:38;3.70;99.90
35445;DHT22;21562;49.476;6.086;2023-03-01T00:16:09;3.80;99.90
35445;DHT22;21562;49.476;6.086;2023-03-01T00:18:35;3.90;99.90
35445;DHT22;21562;49.476;6.086;2023-03-01T00:21:01;3.90;99.90
35445;DHT22;21562;49.476;6.086;2023-03-01T00:23:27;3.80;99.90
35445;DHT22;21562;49.476;6.086;2023-03-01T00:25:53;3.80;99.90
35445;DHT22;21562;49.476;6.086;2023-03-01T00:28:19;3.90;99.90
35445;DHT22;21562;49.476;6.086;2023-03-01T00:30:45;4.00;99.90
35445;DHT22;21562;49.476;6.086;2023-03-01T00:33:11;4.10;99.90
35445;DHT22;21562;49.476;6.086;2023-03-01T00:35:37;3.90;99.90
35445;DHT22;21562;49.476;6.086;2023-03-01T00:38:03;4.00;99.90
35445;DHT22;21562;49.476;6.086;2023-03-01T00:40:31;4.00;99.90
35445;DHT22;21562;49.476;6.086;2023-03-01T00:42:57;3.90;99.90
35445;DHT22;21562;49.476;6.086;2023-03-01T00:45:24;3.80;99.90
35445;DHT22;21562;49.476;6.086;2023-03-01T00:47:50;3.80;99.90
35445;DHT22;21562;49.476;6.086;2023-03-01T00:50:16;3.90;99.90
35445;DHT22;21562;49.476;6.086;2023-03-01T00:52:43;3.60;99.90
35445;DHT22;21562;49.476;6.086;2023-03-01T00:55:09;3.50;99.90
35445;DHT22;21562;49.476;6.086;2023-03-01T00:57:34;3.50;99.90
35445;DHT22;21562;49.476;6.086;2023-03-01T01:00:00;3.10;99.90
35445;DHT22;21562;49.476;6.086;2023-03-01T01:02:26;3.00;99.90
35445;DHT22;21562;49.476;6.086;2023-03-01T01:04:52;3.00;99.90
35445;DHT22;21562;49.476;6.086;2023-03-01T01:07:17;3.20;99.90
35445;DHT22;21562;49.476;6.086;2023-03-01T01:09:45;3.40;99.90
35445;DHT22;21562;49.476;6.086;2023-03-01T01:12:11;3.30;99.90
35445;DHT22;21562;49.476;6.086;2023-03-01T01:14:36;3.10;99.90
35445;DHT22;21562;49.476;6.086;2023-03-01T01:17:02;3.00;99.90
35445;DHT22;21562;49.476;6.086;2023-03-01T01:19:28;3.10;99.90
35445;DHT22;21562;49.476;6.086;2023-03-01T01:21:54;3.20;99.90
35445;DHT22;21562;49.476;6.086;2023-03-01T01:24:19;3.20;99.90
35445;DHT22;21562;49.476;6.086;2023-03-01T01:26:45;3.20;99.90
35445;DHT22;21562;49.476;6.086;2023-03-01T01:29:11;3.50;99.90
35445;DHT22;21562;49.476;6.086;2023-03-01T01:31:38;3.40;99.90
35445;DHT22;21562;49.476;6.086;2023-03-01T01:34:06;3.30;99.90
35445;DHT22;21562;49.476;6.086;2023-03-01T01:36:33;3.40;99.90
35445;DHT22;21562;49.476;6.086;2023-03-01T01:38:59;3.30;99.90
35445;DHT22;21562;49.476;6.086;2023-03-01T01:41:27;3.20;99.90
35445;DHT22;21562;49.476;6.086;2023-03-01T01:44:18;3.30;99.90
35445;DHT22;21562;49.476;6.086;2023-03-01T01:46:49;3.10;99.90
35445;DHT22;21562;49.476;6.086;2023-03-01T01:49:37;3.10;99.90
35445;DHT22;21562;49.476;6.086;2023-03-01T01:54:57;2.90;99.90
35445;DHT22;21562;49.476;6.086;2023-03-01T01:57:28;3.00;99.90
35445;DHT22;21562;49.476;6.086;2023-03-01T01:59:58;3.10;99.90
35445;DHT22;21562;49.476;6.086;2023-03-01T02:02:25;3.20;99.90
35445;DHT22;21562;49.476;6.086;2023-03-01T02:05:06;3.40;99.90
35445;DHT22;21562;49.476;6.086;2023-03-01T02:07:38;3.10;99.90
35445;DHT22;21562;49.476;6.086;2023-03-01T02:10:05;3.10;99.90
35445;DHT22;21562;49.476;6.086;2023-03-01T02:12:31;3.20;99.90
35445;DHT22;21562;49.476;6.086;2023-03-01T02:14:57;3.40;99.90
35445;DHT22;21562;49.476;6.086;2023-03-01T02:17:23;3.40;99.90
35445;DHT22;21562;49.476;6.086;2023-03-01T02:22:24;3.20;99.90
35445;DHT22;21562;49.476;6.086;2023-03-01T02:30:17;2.80;99.90
35445;DHT22;21562;49.476;6.086;2023-03-01T02:32:44;2.70;99.90
35445;DHT22;21562;49.476;6.086;2023-03-01T02:35:14;2.80;99.90
35445;DHT22;21562;49.476;6.086;2023-03-01T02:37:42;2.90;99.90
35445;DHT22;21562;49.476;6.086;2023-03-01T02:40:13;3.00;99.90
35445;DHT22;21562;49.476;6.086;2023-03-01T02:42:47;3.00;99.90
35445;DHT22;21562;49.476;6.086;2023-03-01T02:45:15;2.90;99.90
35445;DHT22;21562;49.476;6.086;2023-03-01T02:47:40;2.80;99.90
35445;DHT22;21562;49.476;6.086;2023-03-01T02:50:22;3.00;99.90
35445;DHT22;21562;49.476;6.086;2023-03-01T02:55:22;3.30;99.90
35445;DHT22;21562;49.476;6.086;2023-03-01T02:57:49;3.50;99.90
35445;DHT22;21562;49.476;6.086;2023-03-01T03:00:38;3.70;99.90
35445;DHT22;21562;49.476;6.086;2023-03-01T03:03:06;3.90;99.90
35445;DHT22;21562;49.476;6.086;2023-03-01T03:05:32;4.00;99.90
35445;DHT22;21562;49.476;6.086;2023-03-01T03:08:00;4.00;99.90
35445;DHT22;21562;49.476;6.086;2023-03-01T03:10:32;3.90;99.90
35445;DHT22;21562;49.476;6.086;2023-03-01T03:13:01;3.90;99.90
35445;DHT22;21562;49.476;6.086;2023-03-01T03:15:28;3.80;99.90
35445;DHT22;21562;49.476;6.086;2023-03-01T03:17:55;3.80;99.90
35445;DHT22;21562;49.476;6.086;2023-03-01T03:20:24;3.80;99.90
35445;DHT22;21562;49.476;6.086;2023-03-01T03:22:53;3.80;99.90
35445;DHT22;21562;49.476;6.086;2023-03-01T03:25:19;3.80;99.90
35445;DHT22;21562;49.476;6.086;2023-03-01T03:27:47;3.60;99.90
35445;DHT22;21562;49.476;6.086;2023-03-01T03:30:18;3.60;99.90
35445;DHT22;21562;49.476;6.086;2023-03-01T03:32:46;3.50;99.90
35445;DHT22;21562;49.476;6.086;2023-03-01T03:35:28;3.60;99.90
35445;DHT22;21562;49.476;6.086;2023-03-01T03:37:56;3.50;99.90
35445;DHT22;21562;49.476;6.086;2023-03-01T03:40:40;3.50;99.90
35445;DHT22;21562;49.476;6.086;2023-03-01T03:43:17;3.10;99.90
35445;DHT22;21562;49.476;6.086;2023-03-01T03:45:44;2.90;99.90
35445;DHT22;21562;49.476;6.086;2023-03-01T03:48:11;2.80;99.90
35445;DHT22;21562;49.476;6.086;2023-03-01T03:50:38;2.70;99.90
35445;DHT22;21562;49.476;6.086;2023-03-01T03:53:10;2.60;99.90
35445;DHT22;21562;49.476;6.086;2023-03-01T03:55:36;2.70;99.90
35445;DHT22;21562;49.476;6.086;2023-03-01T03:58:05;2.40;99.90
35445;DHT22;21562;49.476;6.086;2023-03-01T04:00:40;2.30;99.90
35445;DHT22;21562;49.476;6.086;2023-03-01T04:03:06;2.30;99.90
35445;DHT22;21562;49.476;6.086;2023-03-01T04:05:32;2.50;99.90
35445;DHT22;21562;49.476;6.086;2023-03-01T04:07:58;2.60;99.90
35445;DHT22;21562;49.476;6.086;2023-03-01T04:10:35;2.70;99.90
35445;DHT22;21562;49.476;6.086;2023-03-01T04:13:02;2.60;99.90
35445;DHT22;21562;49.476;6.086;2023-03-01T04:15:28;2.60;99.90
35445;DHT22;21562;49.476;6.086;2023-03-01T04:17:55;2.60;99.90
35445;DHT22;21562;49.476;6.086;2023-03-01T04:20:23;2.70;99.90
35445;DHT22;21562;49.476;6.086;2023-03-01T04:23:17;2.60;99.90
35445;DHT22;21562;49.476;6.086;2023-03-01T04:25:56;2.80;99.90
35445;DHT22;21562;49.476;6.086;2023-03-01T04:30:51;3.10;99.90
35445;DHT22;21562;49.476;6.086;2023-03-01T04:33:17;3.30;99.90
35445;DHT22;21562;49.476;6.086;2023-03-01T04:35:42;3.30;99.90
35445;DHT22;21562;49.476;6.086;2023-03-01T04:38:08;3.30;99.90
35445;DHT22;21562;49.476;6.086;2023-03-01T04:40:35;3.10;99.90
35445;DHT22;21562;49.476;6.086;2023-03-01T04:43:01;3.00;99.90
35445;DHT22;21562;49.476;6.086;2023-03-01T04:45:27;2.90;99.90
35445;DHT22;21562;49.476;6.086;2023-03-01T04:47:53;2.80;99.90
35445;DHT22;21562;49.476;6.086;2023-03-01T04:50:19;2.80;99.90
35445;DHT22;21562;49.476;6.086;2023-03-01T04:52:49;2.70;99.90
35445;DHT22;21562;49.476;6.086;2023-03-01T04:55:15;2.70;99.90
35445;DHT22;21562;49.476;6.086;2023-03-01T04:57:40;2.80;99.90
35445;DHT22;21562;49.476;6.086;2023-03-01T05:00:10;2.80;99.90
35445;DHT22;21562;49.476;6.086;2023-03-01T05:02:54;2.80;99.90
35445;DHT22;21562;49.476;6.086;2023-03-01T05:05:26;2.60;99.90
35445;DHT22;21562;49.476;6.086;2023-03-01T05:07:57;2.80;99.90
35445;DHT22;21562;49.476;6.086;2023-03-01T05:10:24;2.80;99.90
35445;DHT22;21562;49.476;6.086;2023-03-01T05:12:50;2.90;99.90
35445;DHT22;21562;49.476;6.086;2023-03-01T05:15:17;2.60;99.90
35445;DHT22;21562;49.476;6.086;2023-03-01T05:17:43;2.60;99.90
35445;DHT22;21562;49.476;6.086;2023-03-01T05:20:10;2.60;99.90
35445;DHT22;21562;49.476;6.086;2023-03-01T05:22:36;2.20;99.90
35445;DHT22;21562;49.476;6.086;2023-03-01T05:25:03;2.20;99.90
35445;DHT22;21562;49.476;6.086;2023-03-01T05:27:29;2.20;99.90
35445;DHT22;21562;49.476;6.086;2023-03-01T05:29:55;2.30;99.90
35445;DHT22;21562;49.476;6.086;2023-03-01T05:32:21;2.30;99.90
35445;DHT22;21562;49.476;6.086;2023-03-01T05:34:47;2.30;99.90
35445;DHT22;21562;49.476;6.086;2023-03-01T05:37:13;2.60;99.90
35445;DHT22;21562;49.476;6.086;2023-03-01T05:39:39;2.70;99.90
35445;DHT22;21562;49.476;6.086;2023-03-01T05:42:05;2.90;99.90
35445;DHT22;21562;49.476;6.086;2023-03-01T05:44:30;2.70;99.90
35445;DHT22;21562;49.476;6.086;2023-03-01T05:46:56;2.80;99.90
35445;DHT22;21562;49.476;6.086;2023-03-01T05:49:22;2.70;99.90
35445;DHT22;21562;49.476;6.086;2023-03-01T05:51:53;2.70;99.90
35445;DHT22;21562;49.476;6.086;2023-03-01T05:54:21;2.60;99.90
35445;DHT22;21562;49.476;6.086;2023-03-01T05:56:47;2.70;99.90
35445;DHT22;21562;49.476;6.086;2023-03-01T05:59:13;2.80;99.90
35445;DHT22;21562;49.476;6.086;2023-03-01T06:01:41;2.90;99.90
35445;DHT22;21562;49.476;6.086;2023-03-01T06:04:06;2.90;99.90
35445;DHT22;21562;49.476;6.086;2023-03-01T06:06:36;3.00;99.90
35445;DHT22;21562;49.476;6.086;2023-03-01T06:09:06;3.10;99.90
35445;DHT22;21562;49.476;6.086;2023-03-01T06:11:34;3.10;99.90
35445;DHT22;21562;49.476;6.086;2023-03-01T06:13:59;3.20;99.90
35445;DHT22;21562;49.476;6.086;2023-03-01T06:16:25;3.30;99.90
35445;DHT22;21562;49.476;6.086;2023-03-01T06:18:51;3.30;99.90
35445;DHT22;21562;49.476;6.086;2023-03-01T06:21:16;3.20;99.90
35445;DHT22;21562;49.476;6.086;2023-03-01T06:23:42;3.20;99.90
35445;DHT22;21562;49.476;6.086;2023-03-01T06:26:08;3.20;99.90
35445;DHT22;21562;49.476;6.086;2023-03-01T06:28:34;3.10;99.90
35445;DHT22;21562;49.476;6.086;2023-03-01T06:31:00;3.00;99.90
35445;DHT22;21562;49.476;6.086;2023-03-01T06:33:26;2.80;99.90
35445;DHT22;21562;49.476;6.086;2023-03-01T06:35:54;2.80;99.90
35445;DHT22;21562;49.476;6.086;2023-03-01T06:38:19;2.70;99.90
35445;DHT22;21562;49.476;6.086;2023-03-01T06:40:45;2.70;99.90
35445;DHT22;21562;49.476;6.086;2023-03-01T06:43:16;2.70;99.90
35445;DHT22;21562;49.476;6.086;2023-03-01T06:45:41;2.90;99.90
35445;DHT22;21562;49.476;6.086;2023-03-01T06:48:08;3.10;99.90
35445;DHT22;21562;49.476;6.086;2023-03-01T06:50:35;2.90;99.90
35445;DHT22;21562;49.476;6.086;2023-03-01T06:53:02;2.70;99.90
35445;DHT22;21562;49.476;6.086;2023-03-01T06:55:27;2.60;99.90
35445;DHT22;21562;49.476;6.086;2023-03-01T06:57:57;2.80;99.90
35445;DHT22;21562;49.476;6.086;2023-03-01T07:00:24;2.90;99.90
35445;DHT22;21562;49.476;6.086;2023-03-01T07:02:49;2.90;99.90
35445;DHT22;21562;49.476;6.086;2023-03-01T07:05:15;3.00;99.90
35445;DHT22;21562;49.476;6.086;2023-03-01T07:07:41;3.10;99.90
35445;DHT22;21562;49.476;6.086;2023-03-01T07:10:07;2.90;99.90
35445;DHT22;21562;49.476;6.086;2023-03-01T07:12:33;3.00;99.90
35445;DHT22;21562;49.476;6.086;2023-03-01T07:14:58;3.00;99.90
35445;DHT22;21562;49.476;6.086;2023-03-01T07:17:24;2.50;99.90
35445;DHT22;21562;49.476;6.086;2023-03-01T07:19:49;2.40;99.90
35445;DHT22;21562;49.476;6.086;2023-03-01T07:22:15;2.50;99.90
35445;DHT22;21562;49.476;6.086;2023-03-01T07:24:41;2.50;99.90
35445;DHT22;21562;49.476;6.086;2023-03-01T07:27:07;2.60;99.90
35445;DHT22;21562;49.476;6.086;2023-03-01T07:29:32;2.50;99.90
35445;DHT22;21562;49.476;6.086;2023-03-01T07:31:58;2.40;99.90
35445;DHT22;21562;49.476;6.086;2023-03-01T07:34:24;5.20;99.90
35445;DHT22;21562;49.476;6.086;2023-03-01T07:36:50;5.60;99.90
35445;DHT22;21562;49.476;6.086;2023-03-01T07:39:15;5.70;99.90
35445;DHT22;21562;49.476;6.086;2023-03-01T07:41:41;5.40;99.90
35445;DHT22;21562;49.476;6.086;2023-03-01T07:44:06;5.00;99.90
35445;DHT22;21562;49.476;6.086;2023-03-01T07:46:32;4.90;99.90
35445;DHT22;21562;49.476;6.086;2023-03-01T07:48:58;4.70;99.90
35445;DHT22;21562;49.476;6.086;2023-03-01T07:51:24;4.50;99.90
35445;DHT22;21562;49.476;6.086;2023-03-01T07:53:49;4.10;99.90
35445;DHT22;21562;49.476;6.086;2023-03-01T07:56:16;3.80;99.90
35445;DHT22;21562;49.476;6.086;2023-03-01T07:58:43;3.80;99.90
35445;DHT22;21562;49.476;6.086;2023-03-01T08:01:12;4.00;99.90
35445;DHT22;21562;49.476;6.086;2023-03-01T08:03:38;4.00;99.90
35445;DHT22;21562;49.476;6.086;2023-03-01T08:06:07;3.80;99.90
35445;DHT22;21562;49.476;6.086;2023-03-01T08:08:34;3.80;99.90
35445;DHT22;21562;49.476;6.086;2023-03-01T08:11:00;3.50;99.90
35445;DHT22;21562;49.476;6.086;2023-03-01T08:13:27;3.30;99.90
35445;DHT22;21562;49.476;6.086;2023-03-01T08:15:53;2.90;99.90
35445;DHT22;21562;49.476;6.086;2023-03-01T08:18:20;2.80;99.90
35445;DHT22;21562;49.476;6.086;2023-03-01T08:20:46;3.00;99.90
35445;DHT22;21562;49.476;6.086;2023-03-01T08:23:12;3.20;99.90
35445;DHT22;21562;49.476;6.086;2023-03-01T08:25:38;3.30;99.90
35445;DHT22;21562;49.476;6.086;2023-03-01T08:28:05;2.90;99.90
35445;DHT22;21562;49.476;6.086;2023-03-01T08:30:31;3.00;99.90
35445;DHT22;21562;49.476;6.086;2023-03-01T08:32:56;3.00;99.90
35445;DHT22;21562;49.476;6.086;2023-03-01T08:35:22;3.20;99.90
35445;DHT22;21562;49.476;6.086;2023-03-01T08:37:48;3.40;99.90
35445;DHT22;21562;49.476;6.086;2023-03-01T08:40:14;3.30;99.90
35445;DHT22;21562;49.476;6.086;2023-03-01T08:42:41;3.30;99.90
35445;DHT22;21562;49.476;6.086;2023-03-01T08:45:09;3.20;99.90
35445;DHT22;21562;49.476;6.086;2023-03-01T08:47:34;3.10;99.90
35445;DHT22;21562;49.476;6.086;2023-03-01T08:50:00;3.20;99.90
35445;DHT22;21562;49.476;6.086;2023-03-01T08:52:26;3.30;99.90
35445;DHT22;21562;49.476;6.086;2023-03-01T08:54:52;3.50;99.90
35445;DHT22;21562;49.476;6.086;2023-03-01T08:57:18;3.50;99.90
35445;DHT22;21562;49.476;6.086;2023-03-01T08:59:43;3.40;99.90
35445;DHT22;21562;49.476;6.086;2023-03-01T09:02:13;3.60;99.90
35445;DHT22;21562;49.476;6.086;2023-03-01T09:04:39;3.70;99.90
35445;DHT22;21562;49.476;6.086;2023-03-01T09:07:05;3.50;99.90
35445;DHT22;21562;49.476;6.086;2023-03-01T09:09:30;3.50;99.90
35445;DHT22;21562;49.476;6.086;2023-03-01T09:11:56;3.70;99.90
35445;DHT22;21562;49.476;6.086;2023-03-01T09:14:22;4.00;99.90
35445;DHT22;21562;49.476;6.086;2023-03-01T09:16:47;3.90;99.90
35445;DHT22;21562;49.476;6.086;2023-03-01T09:19:13;4.10;99.90
35445;DHT22;21562;49.476;6.086;2023-03-01T09:21:39;4.00;99.90
35445;DHT22;21562;49.476;6.086;2023-03-01T09:24:11;4.00;99.90
35445;DHT22;21562;49.476;6.086;2023-03-01T09:26:38;4.20;99.90
35445;DHT22;21562;49.476;6.086;2023-03-01T09:29:03;4.60;99.90
35445;DHT22;21562;49.476;6.086;2023-03-01T09:31:29;4.60;99.90
35445;DHT22;21562;49.476;6.086;2023-03-01T09:33:55;4.80;99.90
35445;DHT22;21562;49.476;6.086;2023-03-01T09:36:22;5.20;99.90
35445;DHT22;21562;49.476;6.086;2023-03-01T09:38:49;5.50;99.90
35445;DHT22;21562;49.476;6.086;2023-03-01T09:44:01;5.50;99.90
35445;DHT22;21562;49.476;6.086;2023-03-01T09:46:34;5.80;99.90
35445;DHT22;21562;49.476;6.086;2023-03-01T09:49:19;5.80;99.90
35445;DHT22;21562;49.476;6.086;2023-03-01T09:51:55;6.00;99.90
35445;DHT22;21562;49.476;6.086;2023-03-01T09:54:21;6.00;99.90
35445;DHT22;21562;49.476;6.086;2023-03-01T10:00:11;6.10;99.90
35445;DHT22;21562;49.476;6.086;2023-03-01T10:02:48;6.20;99.90
35445;DHT22;21562;49.476;6.086;2023-03-01T10:10:51;6.20;99.90
35445;DHT22;21562;49.476;6.086;2023-03-01T10:16:10;7.20;99.90
35445;DHT22;21562;49.476;6.086;2023-03-01T10:18:37;7.20;99.90
35445;DHT22;21562;49.476;6.086;2023-03-01T10:21:16;7.20;99.90
35445;DHT22;21562;49.476;6.086;2023-03-01T10:23:43;7.30;99.90
35445;DHT22;21562;49.476;6.086;2023-03-01T10:26:29;7.40;99.90
35445;DHT22;21562;49.476;6.086;2023-03-01T10:29:04;7.80;99.70
35445;DHT22;21562;49.476;6.086;2023-03-01T10:31:46;7.60;99.70
35445;DHT22;21562;49.476;6.086;2023-03-01T10:34:27;7.70;99.90
35445;DHT22;21562;49.476;6.086;2023-03-01T10:36:57;8.10;98.90
35445;DHT22;21562;49.476;6.086;2023-03-01T10:39:25;8.30;99.10
35445;DHT22;21562;49.476;6.086;2023-03-01T10:41:59;8.20;99.00
35445;DHT22;21562;49.476;6.086;2023-03-01T10:47:41;7.70;98.70
35445;DHT22;21562;49.476;6.086;2023-03-01T10:50:18;7.50;99.90
35445;DHT22;21562;49.476;6.086;2023-03-01T10:52:59;7.80;99.30
35445;DHT22;21562;49.476;6.086;2023-03-01T10:55:36;8.20;98.00
35445;DHT22;21562;49.476;6.086;2023-03-01T11:03:38;8.50;97.90
35445;DHT22;21562;49.476;6.086;2023-03-01T11:08:40;8.80;96.80
35445;DHT22;21562;49.476;6.086;2023-03-01T11:13:35;8.20;98.00
35445;DHT22;21562;49.476;6.086;2023-03-01T11:16:07;8.20;97.80
35445;DHT22;21562;49.476;6.086;2023-03-01T11:18:35;7.90;98.10
35445;DHT22;21562;49.476;6.086;2023-03-01T11:21:01;8.10;98.10
35445;DHT22;21562;49.476;6.086;2023-03-01T11:23:29;8.40;97.80
35445;DHT22;21562;49.476;6.086;2023-03-01T11:26:01;8.80;97.00
35445;DHT22;21562;49.476;6.086;2023-03-01T11:28:29;8.90;96.40
35445;DHT22;21562;49.476;6.086;2023-03-01T11:33:43;8.60;97.40
35445;DHT22;21562;49.476;6.086;2023-03-01T11:38:55;8.90;96.60
35445;DHT22;21562;49.476;6.086;2023-03-01T11:41:26;8.60;96.70
35445;DHT22;21562;49.476;6.086;2023-03-01T11:44:10;8.60;96.90
35445;DHT22;21562;49.476;6.086;2023-03-01T11:55:36;9.70;95.60
35445;DHT22;21562;49.476;6.086;2023-03-01T12:08:35;10.50;92.90
35445;DHT22;21562;49.476;6.086;2023-03-01T12:11:34;9.40;93.80
35445;DHT22;21562;49.476;6.086;2023-03-01T12:17:39;9.40;94.30
35445;DHT22;21562;49.476;6.086;2023-03-01T12:39:08;10.50;92.60
35445;DHT22;21562;49.476;6.086;2023-03-01T12:41:46;10.80;92.10
35445;DHT22;21562;49.476;6.086;2023-03-01T12:44:25;10.10;92.40
35445;DHT22;21562;49.476;6.086;2023-03-01T12:49:33;9.30;94.30
35445;DHT22;21562;49.476;6.086;2023-03-01T12:52:44;9.40;93.80
35445;DHT22;21562;49.476;6.086;2023-03-01T12:55:31;9.70;93.20
35445;DHT22;21562;49.476;6.086;2023-03-01T13:00:57;9.80;93.30
35445;DHT22;21562;49.476;6.086;2023-03-01T13:06:20;9.80;93.10
35445;DHT22;21562;49.476;6.086;2023-03-01T13:11:21;9.50;93.80
35445;DHT22;21562;49.476;6.086;2023-03-01T13:13:47;9.80;94.00
35445;DHT22;21562;49.476;6.086;2023-03-01T13:16:39;10.20;92.60
35445;DHT22;21562;49.476;6.086;2023-03-01T13:19:17;9.60;93.10
35445;DHT22;21562;49.476;6.086;2023-03-01T13:21:47;9.70;93.50
35445;DHT22;21562;49.476;6.086;2023-03-01T13:24:41;10.10;93.50
35445;DHT22;21562;49.476;6.086;2023-03-01T13:29:59;10.70;92.10
35445;DHT22;21562;49.476;6.086;2023-03-01T13:32:35;10.00;92.50
35445;DHT22;21562;49.476;6.086;2023-03-01T13:37:40;10.00;92.60
35445;DHT22;21562;49.476;6.086;2023-03-01T13:42:45;8.90;94.30
35445;DHT22;21562;49.476;6.086;2023-03-01T13:45:21;9.60;93.90
35445;DHT22;21562;49.476;6.086;2023-03-01T13:47:54;10.10;92.80
35445;DHT22;21562;49.476;6.086;2023-03-01T13:50:25;10.30;92.50
35445;DHT22;21562;49.476;6.086;2023-03-01T13:53:00;10.00;92.70
35445;DHT22;21562;49.476;6.086;2023-03-01T13:55:41;10.40;92.20
35445;DHT22;21562;49.476;6.086;2023-03-01T13:59:05;10.70;92.10
35445;DHT22;21562;49.476;6.086;2023-03-01T14:01:30;11.00;91.50
35445;DHT22;21562;49.476;6.086;2023-03-01T14:03:56;11.40;91.60
35445;DHT22;21562;49.476;6.086;2023-03-01T14:06:24;11.80;90.30
35445;DHT22;21562;49.476;6.086;2023-03-01T14:09:01;11.50;90.70
35445;DHT22;21562;49.476;6.086;2023-03-01T14:16:58;12.40;89.90
35445;DHT22;21562;49.476;6.086;2023-03-01T14:19:30;13.60;99.90
35445;DHT22;21562;49.476;6.086;2023-03-01T14:22:23;15.40;99.90
35445;DHT22;21562;49.476;6.086;2023-03-01T14:24:52;16.00;99.90
35445;DHT22;21562;49.476;6.086;2023-03-01T14:27:19;14.60;87.00
35445;DHT22;21562;49.476;6.086;2023-03-01T14:29:55;13.30;88.30
35445;DHT22;21562;49.476;6.086;2023-03-01T14:32:28;12.70;89.40
35445;DHT22;21562;49.476;6.086;2023-03-01T14:34:55;12.60;89.90
35445;DHT22;21562;49.476;6.086;2023-03-01T14:37:23;12.20;90.30
35445;DHT22;21562;49.476;6.086;2023-03-01T14:39:50;11.90;90.30
35445;DHT22;21562;49.476;6.086;2023-03-01T14:42:16;12.40;89.80
35445;DHT22;21562;49.476;6.086;2023-03-01T14:44:43;12.30;90.60
35445;DHT22;21562;49.476;6.086;2023-03-01T14:47:16;12.00;90.20
35445;DHT22;21562;49.476;6.086;2023-03-01T14:49:45;12.10;90.10
35445;DHT22;21562;49.476;6.086;2023-03-01T14:52:21;12.60;88.10
35445;DHT22;21562;49.476;6.086;2023-03-01T14:54:50;12.50;88.70
35445;DHT22;21562;49.476;6.086;2023-03-01T14:57:26;12.70;89.00
35445;DHT22;21562;49.476;6.086;2023-03-01T14:59:53;11.60;89.70
35445;DHT22;21562;49.476;6.086;2023-03-01T15:02:23;11.60;99.90
35445;DHT22;21562;49.476;6.086;2023-03-01T15:04:55;13.70;99.90
35445;DHT22;21562;49.476;6.086;2023-03-01T15:07:34;14.90;99.90
35445;DHT22;21562;49.476;6.086;2023-03-01T15:10:02;16.00;99.90
35445;DHT22;21562;49.476;6.086;2023-03-01T15:14:57;14.80;85.20
35445;DHT22;21562;49.476;6.086;2023-03-01T15:19:54;13.80;86.20
35445;DHT22;21562;49.476;6.086;2023-03-01T15:22:20;13.90;84.50
35445;DHT22;21562;49.476;6.086;2023-03-01T15:24:49;13.80;84.00
35445;DHT22;21562;49.476;6.086;2023-03-01T15:27:20;13.60;83.40
35445;DHT22;21562;49.476;6.086;2023-03-01T15:29:50;12.50;85.50
35445;DHT22;21562;49.476;6.086;2023-03-01T15:32:31;11.70;87.90
35445;DHT22;21562;49.476;6.086;2023-03-01T15:34:58;12.00;88.30
35445;DHT22;21562;49.476;6.086;2023-03-01T15:37:47;12.20;87.40
35445;DHT22;21562;49.476;6.086;2023-03-01T15:40:26;12.60;85.70
35445;DHT22;21562;49.476;6.086;2023-03-01T15:43:06;12.60;85.20
35445;DHT22;21562;49.476;6.086;2023-03-01T15:45:33;11.90;86.60
35445;DHT22;21562;49.476;6.086;2023-03-01T15:48:13;11.90;86.50
35445;DHT22;21562;49.476;6.086;2023-03-01T15:50:40;12.30;86.50
35445;DHT22;21562;49.476;6.086;2023-03-01T15:53:12;12.00;86.10
35445;DHT22;21562;49.476;6.086;2023-03-01T15:55:39;11.90;86.30
35445;DHT22;21562;49.476;6.086;2023-03-01T15:58:12;11.60;87.10
35445;DHT22;21562;49.476;6.086;2023-03-01T16:00:38;11.90;87.30
35445;DHT22;21562;49.476;6.086;2023-03-01T16:03:05;11.90;86.30
35445;DHT22;21562;49.476;6.086;2023-03-01T16:05:33;11.20;87.80
35445;DHT22;21562;49.476;6.086;2023-03-01T16:08:00;11.20;88.40
35445;DHT22;21562;49.476;6.086;2023-03-01T16:10:26;11.20;88.30
35445;DHT22;21562;49.476;6.086;2023-03-01T16:12:52;11.20;88.50
35445;DHT22;21562;49.476;6.086;2023-03-01T16:15:26;10.80;89.50
35445;DHT22;21562;49.476;6.086;2023-03-01T16:17:53;10.90;89.10
35445;DHT22;21562;49.476;6.086;2023-03-01T16:20:18;10.50;90.30
35445;DHT22;21562;49.476;6.086;2023-03-01T16:22:45;10.70;90.20
35445;DHT22;21562;49.476;6.086;2023-03-01T16:25:12;10.90;90.10
35445;DHT22;21562;49.476;6.086;2023-03-01T16:27:41;11.10;89.00
35445;DHT22;21562;49.476;6.086;2023-03-01T16:30:08;11.30;88.60
35445;DHT22;21562;49.476;6.086;2023-03-01T16:32:40;11.20;89.40
35445;DHT22;21562;49.476;6.086;2023-03-01T16:35:07;11.10;87.50
35445;DHT22;21562;49.476;6.086;2023-03-01T16:37:34;11.00;88.10
35445;DHT22;21562;49.476;6.086;2023-03-01T16:40:06;10.90;87.60
35445;DHT22;21562;49.476;6.086;2023-03-01T16:42:39;10.90;88.10
35445;DHT22;21562;49.476;6.086;2023-03-01T16:45:32;11.20;87.20
35445;DHT22;21562;49.476;6.086;2023-03-01T16:48:03;10.80;88.50
35445;DHT22;21562;49.476;6.086;2023-03-01T16:50:29;11.00;88.40
35445;DHT22;21562;49.476;6.086;2023-03-01T16:53:09;10.50;88.10
35445;DHT22;21562;49.476;6.086;2023-03-01T16:55:35;10.30;88.60
35445;DHT22;21562;49.476;6.086;2023-03-01T16:58:02;9.50;89.30
35445;DHT22;21562;49.476;6.086;2023-03-01T17:00:28;9.10;90.30
35445;DHT22;21562;49.476;6.086;2023-03-01T17:02:54;9.30;90.20
35445;DHT22;21562;49.476;6.086;2023-03-01T17:05:20;9.30;90.10
35445;DHT22;21562;49.476;6.086;2023-03-01T17:07:47;9.00;90.60
35445;DHT22;21562;49.476;6.086;2023-03-01T17:10:13;9.00;90.50
35445;DHT22;21562;49.476;6.086;2023-03-01T17:12:40;9.20;90.20
35445;DHT22;21562;49.476;6.086;2023-03-01T17:15:09;9.10;90.30
35445;DHT22;21562;49.476;6.086;2023-03-01T17:17:36;9.00;90.50
35445;DHT22;21562;49.476;6.086;2023-03-01T17:20:02;9.00;90.50
35445;DHT22;21562;49.476;6.086;2023-03-01T17:22:28;9.00;90.40
35445;DHT22;21562;49.476;6.086;2023-03-01T17:25:23;8.80;90.70
35445;DHT22;21562;49.476;6.086;2023-03-01T17:28:34;8.90;90.80
35445;DHT22;21562;49.476;6.086;2023-03-01T17:33:57;8.80;90.50
35445;DHT22;21562;49.476;6.086;2023-03-01T17:36:42;8.70;90.60
35445;DHT22;21562;49.476;6.086;2023-03-01T17:39:35;8.90;90.20
35445;DHT22;21562;49.476;6.086;2023-03-01T17:42:04;9.10;89.60
35445;DHT22;21562;49.476;6.086;2023-03-01T17:44:31;9.00;89.90
35445;DHT22;21562;49.476;6.086;2023-03-01T17:46:58;8.50;90.20
35445;DHT22;21562;49.476;6.086;2023-03-01T17:49:37;8.40;90.40
35445;DHT22;21562;49.476;6.086;2023-03-01T17:55:29;8.40;90.10
35445;DHT22;21562;49.476;6.086;2023-03-01T17:57:55;8.40;90.20
35445;DHT22;21562;49.476;6.086;2023-03-01T18:00:21;8.30;90.30
35445;DHT22;21562;49.476;6.086;2023-03-01T18:02:46;8.40;90.20
35445;DHT22;21562;49.476;6.086;2023-03-01T18:05:12;8.40;90.10